KELD/ELD METAR and TAF weather

Enter ICAO airport designator
Station Type Date Time Source
KELD METAR 2022/01/29 00:53 UTC NOAA

KELD 290053Z AUTO 31006KT 10SM CLR 06/M07 A3038 RMK AO2 SLP288 T00561067


Station Type Date Time Source
KELD Decoded METAR 2022/01/29 00:53 UTC NOAA

SOUTH ARKANSAS REGIONAL, AR, United States (KELD) 33-13N 092-49W 81M
Jan 28, 2022 - 07:53 PM EST / 2022.01.29 0053 UTC
Wind: from the NW (310 degrees) at 7 MPH (6 KT):0
Visibility: 10 mile(s):0
Sky conditions: clear
Temperature: 42.1 F (5.6 C)
Dew Point: 19.9 F (-6.7 C)
Relative Humidity: 40%
Pressure (altimeter): 30.38 in. Hg (1028 hPa)
ob: KELD 290053Z AUTO 31006KT 10SM CLR 06/M07 A3038 RMK AO2 SLP288 T00561067
cycle: 1

Station Type Date Time Source
KELD TAF 2022/01/28 18:39 UTC NOAA

TAF KELD 281737Z 2818/2918 32012G20KT P6SM SKC
FM282100 33015KT P6SM SCT200
FM290100 33006KT P6SM SKC
FM291000 00000KT P6SM SKC
FM291500 14004KT P6SM SKC

Example: see airport list